createdAt,value
2022-12-13T00:02:00.976Z,1.25
2022-12-13T00:04:30.146Z,1.30
2022-12-13T00:06:59.725Z,1.30
2022-12-13T00:09:28.564Z,1.33
2022-12-13T00:11:57.482Z,1.30
2022-12-13T00:14:26.426Z,1.30
2022-12-13T00:16:55.296Z,1.30
2022-12-13T00:19:25.498Z,1.30
2022-12-13T00:21:54.476Z,1.30
2022-12-13T00:24:23.300Z,1.30
2022-12-13T00:26:55.014Z,1.30
2022-12-13T00:29:23.826Z,1.30
2022-12-13T00:31:59.924Z,1.40
2022-12-13T00:34:29.785Z,1.20
2022-12-13T00:37:01.717Z,1.30
2022-12-13T00:39:30.628Z,1.30
2022-12-13T00:41:59.447Z,1.40
2022-12-13T00:44:28.484Z,1.30
2022-12-13T00:46:57.443Z,1.30
2022-12-13T00:49:27.645Z,1.40
2022-12-13T00:51:56.463Z,1.40
2022-12-13T00:54:25.395Z,1.40
2022-12-13T00:56:54.555Z,1.30
2022-12-13T00:59:23.377Z,1.40
2022-12-13T01:01:54.205Z,1.30
2022-12-13T01:04:23.213Z,1.30
2022-12-13T01:06:52.240Z,1.30
2022-12-13T01:09:24.768Z,1.30
2022-12-13T01:12:01.120Z,1.30
2022-12-13T01:14:30.571Z,1.40
2022-12-13T01:17:00.901Z,1.30
2022-12-13T01:19:30.486Z,1.40
2022-12-13T01:22:04.599Z,1.30
2022-12-13T01:24:34.036Z,1.40
2022-12-13T01:27:02.822Z,1.30
2022-12-13T01:29:31.617Z,1.38
2022-12-13T01:32:00.475Z,1.30
2022-12-13T01:34:29.455Z,1.40
2022-12-13T01:36:58.959Z,1.30
2022-12-13T01:39:28.654Z,1.40
2022-12-13T01:42:00.355Z,1.40
2022-12-13T01:44:56.707Z,1.40
2022-12-13T01:47:47.820Z,1.30
2022-12-13T01:50:27.291Z,1.20
2022-12-13T01:53:00.176Z,1.40
2022-12-13T01:55:33.228Z,1.30
2022-12-13T01:58:11.171Z,1.30
2022-12-13T02:00:41.625Z,1.30
2022-12-13T02:03:20.804Z,1.40
2022-12-13T02:06:42.686Z,1.30
2022-12-13T02:09:12.829Z,1.40
2022-12-13T02:11:44.263Z,1.30
2022-12-13T02:14:14.007Z,1.23
2022-12-13T02:16:53.589Z,1.40
2022-12-13T02:20:01.607Z,1.30
2022-12-13T02:22:56.131Z,1.20
2022-12-13T02:26:04.254Z,1.30
2022-12-13T02:29:01.979Z,1.30
2022-12-13T02:31:34.912Z,1.20
2022-12-13T02:34:34.000Z,1.27
2022-12-13T02:37:25.770Z,1.13
2022-12-13T02:39:59.691Z,1.20
2022-12-13T02:42:38.135Z,1.20
2022-12-13T02:45:09.847Z,1.10
2022-12-13T02:47:43.943Z,1.20
2022-12-13T02:50:15.582Z,1.10
2022-12-13T02:52:47.179Z,1.00
2022-12-13T02:55:17.624Z,1.10
2022-12-13T02:57:49.264Z,1.00
2022-12-13T03:00:23.487Z,1.00
2022-12-13T03:03:07.819Z,1.00
2022-12-13T03:06:12.996Z,1.00
2022-12-13T03:09:08.373Z,1.20
2022-12-13T03:12:09.388Z,1.10
2022-12-13T03:14:46.144Z,1.10
2022-12-13T03:17:17.875Z,1.05
2022-12-13T03:19:47.745Z,1.00
2022-12-13T03:22:17.799Z,1.10
2022-12-13T03:24:46.825Z,1.10
2022-12-13T03:27:15.628Z,1.10
2022-12-13T03:29:44.511Z,1.10
2022-12-13T03:32:13.302Z,1.10
2022-12-13T03:34:44.061Z,1.10
2022-12-13T03:37:14.338Z,1.10
2022-12-13T03:39:43.329Z,1.10
2022-12-13T03:42:12.371Z,1.02
2022-12-13T03:44:41.152Z,1.10
2022-12-13T03:47:10.115Z,1.10
2022-12-13T03:49:38.863Z,1.02
2022-12-13T03:52:07.826Z,1.10
2022-12-13T03:54:36.858Z,1.10
2022-12-13T03:57:05.706Z,1.10
2022-12-13T03:59:34.579Z,1.10
2022-12-13T04:02:04.219Z,1.10
2022-12-13T04:04:33.416Z,1.10
2022-12-13T04:07:02.477Z,1.10
2022-12-13T04:09:31.287Z,1.10
2022-12-13T04:12:18.226Z,1.00
2022-12-13T04:14:47.081Z,1.05
2022-12-13T04:17:16.051Z,1.10
2022-12-13T04:19:44.920Z,1.10
2022-12-13T04:22:13.677Z,1.10
2022-12-13T04:24:42.491Z,1.00
2022-12-13T04:27:11.365Z,1.10
2022-12-13T04:29:40.161Z,1.10
2022-12-13T04:32:27.217Z,1.10
2022-12-13T04:35:01.545Z,1.10
2022-12-13T04:37:32.594Z,1.20
2022-12-13T04:40:01.534Z,1.05
2022-12-13T04:42:32.246Z,1.00
2022-12-13T04:45:01.095Z,1.10
2022-12-13T04:47:31.938Z,1.10
2022-12-13T04:50:00.865Z,1.10
2022-12-13T04:52:31.335Z,1.02
2022-12-13T04:55:00.172Z,1.10
2022-12-13T04:57:29.033Z,1.10
2022-12-13T04:59:57.851Z,1.10
2022-12-13T05:02:28.947Z,1.10
2022-12-13T05:04:58.117Z,1.10
2022-12-13T05:07:27.921Z,1.00
2022-12-13T05:09:56.757Z,1.10
2022-12-13T05:12:25.846Z,1.10
2022-12-13T05:14:54.801Z,1.10
2022-12-13T05:17:23.944Z,1.10
2022-12-13T05:19:52.838Z,1.10
2022-12-13T05:22:21.678Z,1.10
2022-12-13T05:24:50.470Z,1.00
2022-12-13T05:27:25.933Z,1.08
2022-12-13T05:30:04.964Z,1.20
2022-12-13T05:32:43.107Z,1.10
2022-12-13T05:35:21.790Z,1.10
2022-12-13T05:37:54.595Z,1.00
2022-12-13T05:40:24.797Z,1.00
2022-12-13T05:43:00.645Z,1.10
2022-12-13T05:45:32.307Z,1.10
2022-12-13T05:48:02.782Z,1.00
2022-12-13T05:50:31.619Z,1.00
2022-12-13T05:53:00.576Z,1.00
2022-12-13T05:55:29.426Z,1.10
2022-12-13T05:58:02.504Z,1.00
2022-12-13T06:00:32.244Z,1.00
2022-12-13T06:03:01.938Z,1.10
2022-12-13T06:05:32.006Z,1.00
2022-12-13T06:08:01.301Z,1.00
2022-12-13T06:10:35.123Z,1.00
2022-12-13T06:13:21.988Z,1.00
2022-12-13T06:16:01.571Z,1.00
2022-12-13T06:18:36.576Z,1.00
2022-12-13T06:21:07.760Z,1.02
2022-12-13T06:23:36.658Z,1.00
2022-12-13T06:26:07.542Z,1.00
2022-12-13T06:28:36.695Z,1.00
2022-12-13T06:31:05.843Z,0.93
2022-12-13T06:33:39.570Z,1.00
2022-12-13T06:36:08.953Z,1.00
2022-12-13T06:38:43.560Z,1.10
2022-12-13T06:41:15.799Z,1.00
2022-12-13T06:43:46.083Z,1.00
2022-12-13T06:46:16.357Z,1.00
2022-12-13T06:48:45.707Z,1.00
2022-12-13T06:51:22.830Z,1.00
2022-12-13T06:53:53.155Z,1.08
2022-12-13T06:56:21.975Z,1.00
2022-12-13T06:58:50.725Z,1.00
2022-12-13T07:01:24.892Z,1.00
2022-12-13T07:03:58.461Z,1.00
2022-12-13T07:06:27.631Z,1.10
2022-12-13T07:08:58.803Z,1.10
2022-12-13T07:11:33.833Z,1.00
2022-12-13T07:14:02.807Z,1.10
2022-12-13T07:16:33.038Z,1.00
2022-12-13T07:19:04.887Z,1.00
2022-12-13T07:21:52.581Z,1.05
2022-12-13T07:24:21.436Z,1.05
2022-12-13T07:26:50.371Z,1.00
2022-12-13T07:29:22.084Z,1.10
2022-12-13T07:31:51.374Z,1.10
2022-12-13T07:34:20.328Z,1.00
2022-12-13T07:36:51.492Z,1.10
2022-12-13T07:39:20.415Z,1.10
2022-12-13T07:41:49.271Z,1.08
2022-12-13T07:44:18.500Z,1.10
2022-12-13T07:46:48.048Z,1.08
2022-12-13T07:49:17.002Z,1.00
2022-12-13T07:51:45.869Z,1.00
2022-12-13T07:54:14.755Z,1.00
2022-12-13T07:56:43.673Z,1.05
2022-12-13T07:59:12.634Z,1.00
2022-12-13T08:01:42.273Z,1.10
2022-12-13T08:04:11.319Z,1.10
2022-12-13T08:06:40.158Z,1.10
2022-12-13T08:09:09.070Z,1.10
2022-12-13T08:11:37.981Z,1.10
2022-12-13T08:14:07.049Z,1.10
2022-12-13T08:16:35.993Z,1.10
2022-12-13T08:19:04.978Z,1.10
2022-12-13T08:21:54.556Z,1.10
2022-12-13T08:24:25.810Z,1.10
2022-12-13T08:27:01.781Z,1.20
2022-12-13T08:29:34.588Z,1.17
2022-12-13T08:32:09.499Z,1.10
2022-12-13T08:34:38.818Z,1.10
2022-12-13T08:37:07.770Z,1.10
2022-12-13T08:39:38.421Z,1.10
2022-12-13T08:42:19.338Z,1.10
2022-12-13T08:44:51.123Z,1.10
2022-12-13T08:47:25.944Z,1.10
2022-12-13T08:50:02.070Z,1.10
2022-12-13T08:52:40.181Z,1.10
2022-12-13T08:55:11.890Z,1.30
2022-12-13T08:57:43.410Z,1.10
2022-12-13T09:00:16.762Z,1.10
2022-12-13T09:02:46.060Z,1.10
2022-12-13T09:05:33.256Z,1.10
2022-12-13T09:08:22.863Z,1.10
2022-12-13T09:11:01.163Z,1.10
2022-12-13T09:13:43.734Z,1.10
2022-12-13T09:16:23.483Z,1.20
2022-12-13T09:18:56.428Z,1.20
2022-12-13T09:21:31.736Z,1.10
2022-12-13T09:24:02.472Z,1.30
2022-12-13T09:26:38.065Z,1.20
2022-12-13T09:29:10.523Z,1.20
2022-12-13T09:31:41.345Z,1.10
2022-12-13T09:34:11.410Z,1.20
2022-12-13T09:36:40.743Z,1.10
2022-12-13T09:39:12.535Z,1.15
2022-12-13T09:41:51.406Z,1.20
2022-12-13T09:44:32.072Z,1.30
2022-12-13T09:47:22.722Z,1.20
2022-12-13T09:49:53.747Z,1.20
2022-12-13T09:52:26.395Z,1.20
2022-12-13T09:55:06.570Z,1.20
2022-12-13T09:57:38.291Z,1.20
2022-12-13T10:00:14.536Z,1.10
2022-12-13T10:02:56.136Z,1.20
2022-12-13T10:05:39.499Z,1.20
2022-12-13T10:08:15.220Z,1.20
2022-12-13T10:10:44.319Z,1.30
2022-12-13T10:13:20.044Z,1.20
2022-12-13T10:18:34.526Z,1.20
2022-12-13T10:21:29.673Z,1.27
2022-12-13T10:24:36.452Z,1.30
2022-12-13T10:27:18.706Z,1.30
2022-12-13T10:30:08.633Z,1.20
2022-12-13T10:32:54.439Z,1.20
2022-12-13T10:35:37.492Z,1.10
2022-12-13T10:38:09.556Z,1.20
2022-12-13T10:40:47.383Z,1.20
2022-12-13T10:43:19.553Z,1.20
2022-12-13T10:45:58.419Z,1.10
2022-12-13T10:48:38.391Z,1.10
2022-12-13T10:51:15.226Z,1.13
2022-12-13T10:53:59.695Z,1.20
2022-12-13T10:56:46.104Z,1.25
2022-12-13T10:59:26.403Z,1.20
2022-12-13T11:01:56.167Z,1.20
2022-12-13T11:04:32.726Z,1.20
2022-12-13T11:07:22.599Z,1.20
2022-12-13T11:09:52.752Z,1.30
2022-12-13T11:12:27.876Z,1.20
2022-12-13T11:15:01.525Z,1.20
2022-12-13T11:20:16.409Z,1.20
2022-12-13T11:22:45.332Z,1.20
2022-12-13T11:25:24.700Z,1.20
2022-12-13T11:28:29.032Z,1.20
2022-12-13T11:31:03.747Z,1.30
2022-12-13T11:34:11.742Z,1.20
2022-12-13T11:36:54.252Z,1.20
2022-12-13T11:39:33.472Z,1.20
2022-12-13T11:42:30.551Z,1.20
2022-12-13T11:45:23.142Z,1.10
2022-12-13T11:48:10.238Z,1.20
2022-12-13T11:50:42.029Z,1.20
2022-12-13T11:53:19.818Z,1.20
2022-12-13T11:55:56.059Z,1.10
2022-12-13T11:59:16.307Z,1.20
2022-12-13T12:01:56.887Z,1.30
2022-12-13T12:04:58.363Z,1.20
2022-12-13T12:07:58.416Z,1.30
2022-12-13T12:10:49.379Z,1.20
2022-12-13T12:13:18.798Z,1.15
2022-12-13T12:16:07.703Z,1.17
2022-12-13T12:18:37.690Z,1.20
2022-12-13T12:21:09.941Z,1.20
2022-12-13T12:23:53.813Z,1.20
2022-12-13T12:26:50.983Z,1.20
2022-12-13T12:29:38.412Z,1.20
2022-12-13T12:32:21.193Z,1.20
2022-12-13T12:35:16.279Z,1.20
2022-12-13T12:37:54.149Z,1.30
2022-12-13T12:41:14.303Z,1.20
2022-12-13T12:43:35.584Z,1.15
2022-12-13T12:46:26.831Z,1.10
2022-12-13T12:49:32.655Z,1.20
2022-12-13T12:52:24.291Z,1.20
2022-12-13T12:55:12.723Z,1.20
2022-12-13T12:57:56.641Z,1.20
2022-12-13T13:00:44.774Z,1.20
2022-12-13T13:03:28.920Z,1.15
2022-12-13T13:06:05.730Z,1.20
2022-12-13T13:08:41.709Z,1.30
2022-12-13T13:11:24.804Z,1.20
2022-12-13T13:14:02.201Z,1.20
2022-12-13T13:16:34.423Z,1.10
2022-12-13T13:19:41.527Z,1.10
2022-12-13T13:22:43.481Z,1.20
2022-12-13T13:25:23.838Z,1.20
2022-12-13T13:28:01.040Z,1.20
2022-12-13T13:30:31.330Z,1.10
2022-12-13T13:33:00.611Z,1.20
2022-12-13T13:35:33.407Z,1.10
2022-12-13T13:38:17.935Z,1.13
2022-12-13T13:40:46.956Z,1.20
2022-12-13T13:43:18.543Z,1.23
2022-12-13T13:45:59.958Z,1.20
2022-12-13T13:48:51.778Z,1.20
2022-12-13T13:52:23.870Z,1.20
2022-12-13T13:55:21.293Z,1.20
2022-12-13T13:58:11.814Z,1.20
2022-12-13T14:01:17.865Z,1.20
2022-12-13T14:04:25.838Z,1.10
2022-12-13T14:07:11.570Z,1.17
2022-12-13T14:10:08.068Z,1.20
2022-12-13T14:13:00.067Z,1.15
2022-12-13T14:16:06.994Z,1.20
2022-12-13T14:19:12.376Z,1.13
2022-12-13T14:22:23.897Z,1.10
2022-12-13T14:25:01.641Z,1.20
2022-12-13T14:27:47.230Z,1.15
2022-12-13T14:30:28.237Z,1.20
2022-12-13T14:32:58.962Z,1.20
2022-12-13T14:35:33.196Z,1.20
2022-12-13T14:38:06.000Z,1.20
2022-12-13T14:40:37.756Z,1.20
2022-12-13T14:43:24.358Z,1.20
2022-12-13T14:45:58.775Z,1.20
2022-12-13T14:48:30.300Z,1.20
2022-12-13T14:50:59.279Z,1.10
2022-12-13T14:53:45.158Z,1.10
2022-12-13T14:56:27.628Z,1.20
2022-12-13T14:59:01.268Z,1.30
2022-12-13T15:01:36.390Z,1.27
2022-12-13T15:04:19.905Z,1.30
2022-12-13T15:06:56.668Z,1.30
2022-12-13T15:09:29.242Z,1.30
2022-12-13T15:12:23.441Z,1.30
2022-12-13T15:15:03.198Z,1.20
2022-12-13T15:17:41.533Z,1.20
2022-12-13T15:20:29.165Z,1.20
2022-12-13T15:23:05.308Z,1.30
2022-12-13T15:25:37.941Z,1.40
2022-12-13T15:28:08.753Z,1.30
2022-12-13T15:30:39.219Z,1.20
2022-12-13T15:33:18.902Z,1.27
2022-12-13T15:36:07.219Z,1.30
2022-12-13T15:38:40.866Z,1.30
2022-12-13T15:41:19.224Z,1.20
2022-12-13T15:43:55.173Z,1.30
2022-12-13T15:49:03.789Z,1.40
2022-12-13T15:51:32.815Z,1.25
2022-12-13T15:54:04.332Z,1.20
2022-12-13T15:56:36.612Z,1.30
2022-12-13T15:59:07.493Z,1.20
2022-12-13T16:01:38.036Z,1.30
2022-12-13T16:04:07.659Z,1.30
2022-12-13T16:06:37.066Z,1.30
2022-12-13T16:09:08.568Z,1.30
2022-12-13T16:11:48.453Z,1.30
2022-12-13T16:14:34.608Z,1.20
2022-12-13T16:17:15.826Z,1.20
2022-12-13T16:19:44.831Z,1.20
2022-12-13T16:22:13.670Z,1.30
2022-12-13T16:24:42.440Z,1.20
2022-12-13T16:27:11.317Z,1.20
2022-12-13T16:29:40.577Z,1.30
2022-12-13T16:32:11.337Z,1.30
2022-12-13T16:34:40.808Z,1.30
2022-12-13T16:37:26.319Z,1.30
2022-12-13T16:39:57.252Z,1.23
2022-12-13T16:42:27.034Z,1.20
2022-12-13T16:45:32.475Z,1.30
2022-12-13T16:47:50.414Z,1.30
2022-12-13T16:50:21.496Z,1.23
2022-12-13T16:52:50.468Z,1.30
2022-12-13T16:55:19.249Z,1.20
2022-12-13T16:57:58.502Z,1.20
2022-12-13T17:00:30.402Z,1.20
2022-12-13T17:03:00.654Z,1.30
2022-12-13T17:05:30.112Z,1.30
2022-12-13T17:07:58.935Z,1.27
2022-12-13T17:10:28.578Z,1.30
2022-12-13T17:12:57.559Z,1.30
2022-12-13T17:15:26.753Z,1.20
2022-12-13T17:17:55.941Z,1.30
2022-12-13T17:20:25.726Z,1.30
2022-12-13T17:22:54.667Z,1.30
2022-12-13T17:25:24.414Z,1.40
2022-12-13T17:27:53.217Z,1.30
2022-12-13T17:30:22.087Z,1.30
2022-12-13T17:32:51.059Z,1.30
2022-12-13T17:35:20.427Z,1.30
2022-12-13T17:37:49.602Z,1.33
2022-12-13T17:40:18.556Z,1.20
2022-12-13T17:42:50.389Z,1.30
2022-12-13T17:45:20.240Z,1.30
2022-12-13T17:47:49.277Z,1.30
2022-12-13T17:50:18.205Z,1.30
2022-12-13T17:52:47.069Z,1.30
2022-12-13T17:55:18.660Z,1.30
2022-12-13T17:57:47.521Z,1.30
2022-12-13T18:00:17.316Z,1.30
2022-12-13T18:02:55.874Z,1.40
2022-12-13T18:05:28.299Z,1.42
2022-12-13T18:07:57.276Z,1.30
2022-12-13T18:10:29.827Z,1.30
2022-12-13T18:12:59.618Z,1.40
2022-12-13T18:15:28.747Z,1.40
2022-12-13T18:18:11.132Z,1.30
2022-12-13T18:20:41.182Z,1.30
2022-12-13T18:23:10.253Z,1.30
2022-12-13T18:25:39.965Z,1.20
2022-12-13T18:28:12.388Z,1.40
2022-12-13T18:30:41.274Z,1.20
2022-12-13T18:33:10.762Z,1.30
2022-12-13T18:35:39.493Z,1.40
2022-12-13T18:38:08.696Z,1.30
2022-12-13T18:40:38.063Z,1.30
2022-12-13T18:43:06.967Z,1.30
2022-12-13T18:45:36.121Z,1.30
2022-12-13T18:48:05.108Z,1.27
2022-12-13T18:50:34.800Z,1.35
2022-12-13T18:53:03.646Z,1.40
2022-12-13T18:55:34.011Z,1.30
2022-12-13T18:58:02.828Z,1.20
2022-12-13T19:00:33.150Z,1.35
2022-12-13T19:03:02.629Z,1.20
2022-12-13T19:05:31.526Z,1.40
2022-12-13T19:08:00.273Z,1.30
2022-12-13T19:10:29.082Z,1.40
2022-12-13T19:12:58.102Z,1.33
2022-12-13T19:15:29.694Z,1.35
2022-12-13T19:17:58.849Z,1.40
2022-12-13T19:20:27.773Z,1.38
2022-12-13T19:22:57.057Z,1.30
2022-12-13T19:25:25.863Z,1.30
2022-12-13T19:27:57.345Z,1.40
2022-12-13T19:30:26.487Z,1.30
2022-12-13T19:32:55.253Z,1.33
2022-12-13T19:35:24.129Z,1.30
2022-12-13T19:37:53.780Z,1.33
2022-12-13T19:40:22.683Z,1.30
2022-12-13T19:42:51.537Z,1.40
2022-12-13T19:45:20.761Z,1.40
2022-12-13T19:47:49.614Z,1.30
2022-12-13T19:50:18.744Z,1.40
2022-12-13T19:52:47.554Z,1.40
2022-12-13T19:55:16.467Z,1.40
2022-12-13T19:57:45.257Z,1.33
2022-12-13T20:00:15.601Z,1.30
2022-12-13T20:02:44.544Z,1.40
2022-12-13T20:05:13.468Z,1.30
2022-12-13T20:07:42.440Z,1.30
2022-12-13T20:10:12.621Z,1.40
2022-12-13T20:12:41.454Z,1.30
2022-12-13T20:15:10.765Z,1.30
2022-12-13T20:17:39.584Z,1.30
2022-12-13T20:20:08.874Z,1.40
2022-12-13T20:22:37.800Z,1.35
2022-12-13T20:25:07.893Z,1.40
2022-12-13T20:27:36.837Z,1.40
2022-12-13T20:30:07.038Z,1.30
2022-12-13T20:32:35.859Z,1.40
2022-12-13T20:35:04.984Z,1.25
2022-12-13T20:37:33.880Z,1.40
2022-12-13T20:40:02.709Z,1.30
2022-12-13T20:42:34.087Z,1.38
2022-12-13T20:45:03.156Z,1.30
2022-12-13T20:47:37.586Z,1.30
2022-12-13T20:50:07.918Z,1.40
2022-12-13T20:52:37.101Z,1.38
2022-12-13T20:55:06.944Z,1.38
2022-12-13T20:57:35.692Z,1.38
2022-12-13T21:00:06.045Z,1.30
2022-12-13T21:02:35.170Z,1.30
2022-12-13T21:05:04.460Z,1.30
2022-12-13T21:07:51.894Z,1.40
2022-12-13T21:10:20.711Z,1.40
2022-12-13T21:12:49.543Z,1.40
2022-12-13T21:15:18.402Z,1.40
2022-12-13T21:17:47.372Z,1.40
2022-12-13T21:20:16.405Z,1.30
2022-12-13T21:22:45.857Z,1.40
2022-12-13T21:25:14.868Z,1.40
2022-12-13T21:27:43.623Z,1.30
2022-12-13T21:30:17.467Z,1.40
2022-12-13T21:32:51.364Z,1.40
2022-12-13T21:35:21.903Z,1.50
2022-12-13T21:37:50.751Z,1.40
2022-12-13T21:40:19.608Z,1.40
2022-12-13T21:42:48.382Z,1.40
2022-12-13T21:45:17.384Z,1.30
2022-12-13T21:47:46.195Z,1.40
2022-12-13T21:50:15.005Z,1.40
2022-12-13T21:52:49.426Z,1.40
2022-12-13T21:58:29.482Z,1.40
2022-12-13T22:00:59.156Z,1.40
2022-12-13T22:03:28.512Z,1.40
2022-12-13T22:05:57.312Z,1.40
2022-12-13T22:08:26.176Z,1.50
2022-12-13T22:11:19.362Z,1.40
2022-12-13T22:13:50.195Z,1.50
2022-12-13T22:16:19.064Z,1.30
2022-12-13T22:18:48.122Z,1.40
2022-12-13T22:21:16.939Z,1.40
2022-12-13T22:23:45.708Z,1.40
2022-12-13T22:26:14.567Z,1.30
2022-12-13T22:28:43.382Z,1.30
2022-12-13T22:31:12.592Z,1.30
2022-12-13T22:33:41.417Z,1.40
2022-12-13T22:36:10.650Z,1.40
2022-12-13T22:38:39.433Z,1.40
2022-12-13T22:41:08.448Z,1.40
2022-12-13T22:43:37.910Z,1.40
2022-12-13T22:46:09.036Z,1.40
2022-12-13T22:48:38.244Z,1.40
2022-12-13T22:51:10.280Z,1.40
2022-12-13T22:53:40.838Z,1.40
2022-12-13T22:56:17.330Z,1.40
2022-12-13T22:58:47.605Z,1.40
2022-12-13T23:01:20.999Z,1.30
2022-12-13T23:03:50.443Z,1.35
2022-12-13T23:06:22.734Z,1.50
2022-12-13T23:08:58.047Z,1.30
2022-12-13T23:11:46.379Z,1.40
2022-12-13T23:14:18.246Z,1.40
2022-12-13T23:16:47.634Z,1.40
2022-12-13T23:19:41.154Z,1.37
2022-12-13T23:22:09.098Z,1.40
2022-12-13T23:24:37.861Z,1.30
2022-12-13T23:27:10.490Z,1.40
2022-12-13T23:29:41.071Z,1.30
2022-12-13T23:32:09.891Z,1.40
2022-12-13T23:34:39.424Z,1.40
2022-12-13T23:37:08.542Z,1.40
2022-12-13T23:39:37.314Z,1.40
2022-12-13T23:42:06.221Z,1.40
2022-12-13T23:44:35.069Z,1.40
2022-12-13T23:47:03.890Z,1.30
2022-12-13T23:49:32.959Z,1.30
2022-12-13T23:52:01.860Z,1.30
2022-12-13T23:54:30.698Z,1.50
2022-12-13T23:56:59.549Z,1.40
2022-12-13T23:59:28.574Z,1.40
